N81 weather

Hammonton Municipal Airport
Hammonton, New Jersey, United States

Public forecast

Using degrees Fahrenheit for public forecast. Weather courtesy of forecast.io.

METAR (pilot weather report)

Closest report is Atlantic City International Airport, 15.1 nm (28.0 km) SSE. Retrieved 2019/06/26 22:55 UTC (22 minutes ago):

KACY 262255Z 17005KT 10SM CLR 29/19 A3003

TAF (pilot weather forecast)

Closest forecast is Atlantic City International Airport, 15.1 nm (28.0 km) SSE. Retrieved 2019/06/26 18:28 UTC (5 hours ago):

TAF KACY 261723Z 2618/2718 30008KT P6SM FEW060 TEMPO 2621/2701 22006KT FM270100 26002KT P6SM SKC FM270900 32003KT P6SM SKC FM271200 35006KT P6SM SKC